El-djazair II — 7TBR — position and weather

sailwx.info

Track history (hours):
 
Tides and Currents Weather Stations Pressure Air Temp Water Temp Dewpoint Dewpoint Depression Visibility Wind Speed Wind Dir Waves Ship Positions

El-djazair II

Last reported at 2014-Aug-01 04:33 UTC. Time now 2014-Aug-01 05:45 UTC.
Position N 37°20' E 001°53'.

Length 146 m; draft 6.3 m.

Type: Passenger vessel. MMSI: 605026190.

Date/timePositionNaut miles runAvg speedWind from/ knotsBaromVisibWave heightAir tempDewpointWater temp
2014-Aug-01 04:33N 37°20' E 001°53'2423.4
2014-Aug-01 03:33N 37°30' E 001°27'2323.1
2014-Aug-01 02:33N 37°41' E 001°01'2323.1
2014-Aug-01 01:33N 37°52' E 000°36'2323.2
2014-Aug-01 00:33N 38°03' E 000°10'31 4.4
2014-Jul-31 17:33N 38°15' W 000°25'2222.3
2014-Jul-31 16:33N 37°53' W 000°22'2323.5
2014-Jul-31 15:33N 37°30' W 000°25'2423.5
2014-Jul-31 14:33N 37°07' W 000°28'2423.8
2014-Jul-31 13:32N 36°42' W 000°31'2824.5
2014-Jul-31 12:23N 36°15' W 000°34'2023.4
2014-Jul-31 11:33N 35°55' W 000°36'13 5.9
2014-Jul-31 09:23N 35°43' W 000°39'0 0.0
2014-Jul-31 00:17N 35°43' W 000°39'0 0.0
2014-Jul-30 23:32N 35°43' W 000°39'0 0.0
2014-Jul-30 22:23N 35°43' W 000°39'0 0.0
2014-Jul-30 21:33N 35°43' W 000°39'0 0.0
2014-Jul-30 20:32N 35°43' W 000°39'0 0.0
2014-Jul-30 17:23N 35°43' W 000°39'0 0.0
2014-Jul-30 15:11N 35°43' W 000°39'0 0.0
2014-Jul-30 14:29N 35°43' W 000°39'  
2014-Jul-27 07:09N 38°05' E 000°36'1322.8
2014-Jul-27 06:33N 38°17' E 000°42'2923.0
2014-Jul-27 05:19N 38°44' E 000°56'2522.6
2014-Jul-27 04:13N 39°06' E 001°10'1522.9
2014-Jul-27 03:33N 39°18' E 001°22'2322.8
2014-Jul-27 02:33N 39°36' E 001°39'2322.8
2014-Jul-27 01:33N 39°55' E 001°57'2322.9
2014-Jul-27 00:33N 40°13' E 002°15'2323.0
2014-Jul-26 23:33N 40°32' E 002°33'2323.5
2014-Jul-26 22:33N 40°50' E 002°51'2423.5
2014-Jul-26 21:33N 41°09' E 003°10'2423.6
2014-Jul-26 20:33N 41°29' E 003°28'2323.4
2014-Jul-26 19:34N 41°47' E 003°46'2522.7
2014-Jul-26 18:27N 42°08' E 004°06'2622.9
2014-Jul-26 17:18N 42°29' E 004°27'1723.0
2014-Jul-26 16:33N 42°43' E 004°40'2323.1
2014-Jul-26 15:33N 43°01' E 004°60'2222.0
2014-Jul-26 14:33N 43°18' E 005°20'1 1.2
2014-Jul-26 13:29N 43°18' E 005°22'0 0.0
2014-Jul-26 12:04N 43°18' E 005°22'0 0.0
2014-Jul-26 11:22N 43°18' E 005°22'4 4.7
2014-Jul-26 10:33N 43°15' E 005°18'2822.8
2014-Jul-26 09:19N 42°51' E 004°58'1721.6
2014-Jul-26 08:33N 42°37' E 004°45'2623.3
2014-Jul-26 07:25N 42°15' E 004°27'1922.0
2014-Jul-26 06:33N 41°59' E 004°13'2323.3
2014-Jul-26 05:33N 41°40' E 003°56'2422.5
2014-Jul-26 04:29N 41°19' E 003°39'2122.4
2014-Jul-26 03:34N 41°02' E 003°24'2322.7
2014-Jul-26 02:33N 40°42' E 003°08'2222.6
2014-Jul-26 01:33N 40°24' E 002°52'2322.9
2014-Jul-26 00:34N 40°04' E 002°36'2323.1
2014-Jul-25 23:33N 39°45' E 002°20'2323.5
2014-Jul-25 22:33N 39°24' E 002°06'2323.1
2014-Jul-25 21:33N 39°02' E 001°54'2323.2
2014-Jul-25 20:34N 38°41' E 001°43'4823.2
2014-Jul-25 18:31N 38°01' E 001°11'6923.4
2014-Jul-25 15:33N 37°02' E 000°24'2323.3
2014-Jul-25 14:33N 36°42' E 000°09'2623.4
2014-Jul-25 13:25N 36°20' W 000°09'61 5.6
2014-Jul-25 02:30N 37°19' W 000°27'2122.2
2014-Jul-25 01:33N 37°40' W 000°25'2222.5
2014-Jul-25 00:33N 38°03' W 000°20'2 0.1
2014-Jul-24 05:33N 38°01' W 000°22'2322.7
2014-Jul-24 04:33N 37°39' W 000°23'2322.6
2014-Jul-24 03:33N 37°16' W 000°27'2323.2
2014-Jul-24 02:33N 36°53' W 000°29'71 6.2
2014-Jul-23 15:13N 35°43' W 000°39'0 0.0
2014-Jul-23 14:33N 35°43' W 000°39'1313.1
2014-Jul-23 13:32N 35°55' W 000°34'2323.4
2014-Jul-23 12:33N 36°16' W 000°22'2323.2
2014-Jul-23 11:34N 36°38' W 000°11'2423.4
2014-Jul-23 10:31N 37°00' E 000°01'2223.1
2014-Jul-23 09:33N 37°20' E 000°11'2222.5
2014-Jul-23 08:33N 37°41' E 000°23'2322.4
2014-Jul-23 07:33N 38°02' E 000°34'2222.4
2014-Jul-23 06:33N 38°23' E 000°44'2322.6
2014-Jul-23 05:32N 38°44' E 000°55'2222.5
2014-Jul-23 04:33N 39°04' E 001°07'2222.4
2014-Jul-23 03:33N 39°23' E 001°23'2322.7
2014-Jul-23 02:33N 39°42' E 001°38'2322.8
2014-Jul-23 01:33N 40°01' E 001°55'2323.0
2014-Jul-23 00:33N 40°19' E 002°13'2323.1
2014-Jul-22 23:33N 40°38' E 002°31'2121.3
2014-Jul-22 22:33N 40°55' E 002°47'2322.9
2014-Jul-22 21:33N 41°14' E 003°05'2622.8
2014-Jul-22 20:25N 41°35' E 003°25'1922.6
2014-Jul-22 19:33N 41°51' E 003°39'9622.6
2014-Jul-22 15:18N 43°08' E 004°58'1722.7
2014-Jul-22 14:33N 43°18' E 005°17'3 2.5
2014-Jul-22 13:16N 43°18' E 005°22'0 0.0
2014-Jul-22 12:28N 43°18' E 005°22'0 0.0
2014-Jul-22 11:31N 43°18' E 005°22'10 9.9
2014-Jul-22 10:33N 43°12' E 005°11'2221.5
2014-Jul-22 09:33N 43°02' E 004°45'2222.1
2014-Jul-22 08:33N 42°51' E 004°19'2522.9
2014-Jul-22 07:29N 42°39' E 003°50'2021.6
2014-Jul-22 06:33N 42°29' E 003°26'  
Track history (hours):
 
Tides and Currents Weather Stations Pressure Air Temp Water Temp Dewpoint Dewpoint Depression Visibility Wind Speed Wind Dir Waves Ship Positions

El-djazair II

Last reported at 2014-Aug-01 04:33 UTC. Time now 2014-Aug-01 05:45 UTC.
Position N 37°20' E 001°53'.

Length 146 m; draft 6.3 m.

Type: Passenger vessel. MMSI: 605026190.

Date/timePositionNaut miles runAvg speedWind from/ knotsBaromVisibWave heightAir tempDewpointWater temp
2014-Aug-01 04:33N 37°20' E 001°53'2423.4
2014-Aug-01 03:33N 37°30' E 001°27'2323.1
2014-Aug-01 02:33N 37°41' E 001°01'2323.1
2014-Aug-01 01:33N 37°52' E 000°36'2323.2
2014-Aug-01 00:33N 38°03' E 000°10'31 4.4
2014-Jul-31 17:33N 38°15' W 000°25'2222.3
2014-Jul-31 16:33N 37°53' W 000°22'2323.5
2014-Jul-31 15:33N 37°30' W 000°25'2423.5
2014-Jul-31 14:33N 37°07' W 000°28'2423.8
2014-Jul-31 13:32N 36°42' W 000°31'2824.5
2014-Jul-31 12:23N 36°15' W 000°34'2023.4
2014-Jul-31 11:33N 35°55' W 000°36'13 5.9
2014-Jul-31 09:23N 35°43' W 000°39'0 0.0
2014-Jul-31 00:17N 35°43' W 000°39'0 0.0
2014-Jul-30 23:32N 35°43' W 000°39'0 0.0
2014-Jul-30 22:23N 35°43' W 000°39'0 0.0
2014-Jul-30 21:33N 35°43' W 000°39'0 0.0
2014-Jul-30 20:32N 35°43' W 000°39'0 0.0
2014-Jul-30 17:23N 35°43' W 000°39'0 0.0
2014-Jul-30 15:11N 35°43' W 000°39'0 0.0
2014-Jul-30 14:29N 35°43' W 000°39'  
2014-Jul-27 07:09N 38°05' E 000°36'1322.8
2014-Jul-27 06:33N 38°17' E 000°42'2923.0
2014-Jul-27 05:19N 38°44' E 000°56'2522.6
2014-Jul-27 04:13N 39°06' E 001°10'1522.9
2014-Jul-27 03:33N 39°18' E 001°22'2322.8
2014-Jul-27 02:33N 39°36' E 001°39'2322.8
2014-Jul-27 01:33N 39°55' E 001°57'2322.9
2014-Jul-27 00:33N 40°13' E 002°15'2323.0
2014-Jul-26 23:33N 40°32' E 002°33'2323.5
2014-Jul-26 22:33N 40°50' E 002°51'2423.5
2014-Jul-26 21:33N 41°09' E 003°10'2423.6
2014-Jul-26 20:33N 41°29' E 003°28'2323.4
2014-Jul-26 19:34N 41°47' E 003°46'2522.7
2014-Jul-26 18:27N 42°08' E 004°06'2622.9
2014-Jul-26 17:18N 42°29' E 004°27'1723.0
2014-Jul-26 16:33N 42°43' E 004°40'2323.1
2014-Jul-26 15:33N 43°01' E 004°60'2222.0
2014-Jul-26 14:33N 43°18' E 005°20'1 1.2
2014-Jul-26 13:29N 43°18' E 005°22'0 0.0
2014-Jul-26 12:04N 43°18' E 005°22'0 0.0
2014-Jul-26 11:22N 43°18' E 005°22'4 4.7
2014-Jul-26 10:33N 43°15' E 005°18'2822.8
2014-Jul-26 09:19N 42°51' E 004°58'1721.6
2014-Jul-26 08:33N 42°37' E 004°45'2623.3
2014-Jul-26 07:25N 42°15' E 004°27'1922.0
2014-Jul-26 06:33N 41°59' E 004°13'2323.3
2014-Jul-26 05:33N 41°40' E 003°56'2422.5
2014-Jul-26 04:29N 41°19' E 003°39'2122.4
2014-Jul-26 03:34N 41°02' E 003°24'2322.7
2014-Jul-26 02:33N 40°42' E 003°08'2222.6
2014-Jul-26 01:33N 40°24' E 002°52'2322.9
2014-Jul-26 00:34N 40°04' E 002°36'2323.1
2014-Jul-25 23:33N 39°45' E 002°20'2323.5
2014-Jul-25 22:33N 39°24' E 002°06'2323.1
2014-Jul-25 21:33N 39°02' E 001°54'2323.2
2014-Jul-25 20:34N 38°41' E 001°43'4823.2
2014-Jul-25 18:31N 38°01' E 001°11'6923.4
2014-Jul-25 15:33N 37°02' E 000°24'2323.3
2014-Jul-25 14:33N 36°42' E 000°09'2623.4
2014-Jul-25 13:25N 36°20' W 000°09'61 5.6
2014-Jul-25 02:30N 37°19' W 000°27'2122.2
2014-Jul-25 01:33N 37°40' W 000°25'2222.5
2014-Jul-25 00:33N 38°03' W 000°20'2 0.1
2014-Jul-24 05:33N 38°01' W 000°22'2322.7
2014-Jul-24 04:33N 37°39' W 000°23'2322.6
2014-Jul-24 03:33N 37°16' W 000°27'2323.2
2014-Jul-24 02:33N 36°53' W 000°29'71 6.2
2014-Jul-23 15:13N 35°43' W 000°39'0 0.0
2014-Jul-23 14:33N 35°43' W 000°39'1313.1
2014-Jul-23 13:32N 35°55' W 000°34'2323.4
2014-Jul-23 12:33N 36°16' W 000°22'2323.2
2014-Jul-23 11:34N 36°38' W 000°11'2423.4
2014-Jul-23 10:31N 37°00' E 000°01'2223.1
2014-Jul-23 09:33N 37°20' E 000°11'2222.5
2014-Jul-23 08:33N 37°41' E 000°23'2322.4
2014-Jul-23 07:33N 38°02' E 000°34'2222.4
2014-Jul-23 06:33N 38°23' E 000°44'2322.6
2014-Jul-23 05:32N 38°44' E 000°55'2222.5
2014-Jul-23 04:33N 39°04' E 001°07'2222.4
2014-Jul-23 03:33N 39°23' E 001°23'2322.7
2014-Jul-23 02:33N 39°42' E 001°38'2322.8
2014-Jul-23 01:33N 40°01' E 001°55'2323.0
2014-Jul-23 00:33N 40°19' E 002°13'2323.1
2014-Jul-22 23:33N 40°38' E 002°31'2121.3
2014-Jul-22 22:33N 40°55' E 002°47'2322.9
2014-Jul-22 21:33N 41°14' E 003°05'2622.8
2014-Jul-22 20:25N 41°35' E 003°25'1922.6
2014-Jul-22 19:33N 41°51' E 003°39'9622.6
2014-Jul-22 15:18N 43°08' E 004°58'1722.7
2014-Jul-22 14:33N 43°18' E 005°17'3 2.5
2014-Jul-22 13:16N 43°18' E 005°22'0 0.0
2014-Jul-22 12:28N 43°18' E 005°22'0 0.0
2014-Jul-22 11:31N 43°18' E 005°22'10 9.9
2014-Jul-22 10:33N 43°12' E 005°11'2221.5
2014-Jul-22 09:33N 43°02' E 004°45'2222.1
2014-Jul-22 08:33N 42°51' E 004°19'2522.9
2014-Jul-22 07:29N 42°39' E 003°50'2021.6
2014-Jul-22 06:33N 42°29' E 003°26'  

Dump ship's entire track history